Terminal Aerodrome Forecast
Issued by NWS Lake Charles, LA

Current Version | Previous Version | Text Only | Print | Product List | Glossary On
Versions: 1 2 3 4 5 6 7 8 9 10 11 12 13 14 15 16 17 18 19 20 21 22 23 24 25 26
000
FTUS44 KLCH 192321
TAFBPT
TAF
KBPT 192321Z 2000/2024 18008KT P6SM BKN050 OVC060
     FM200100 20005KT 6SM BR BKN015 OVC025
      TEMPO 2002/2004 3SM BR BKN007
     FM200400 21004KT 1SM BR OVC004
     FM201500 21005KT 4SM BR BKN007 OVC020
     FM201600 21008KT P6SM FEW100 SCT250=

USA.gov is the U.S. government's official web portal to all federal, state and local government web resources and services.